EGPB

Sumburgh Airport

Lerwick, United Kingdom
METAR EGPB 131020Z 17024G37KT 9999 FEW020 BKN033 08/03 Q1021
Observed Flight Rules
Dec-13 @ 10:20 UTC (31 minutes ago) Visual Flight Rules
Wind Visibility Clouds
170° at 24 knots
 Gusting to 37 knots
10,000+ meters
  • Few at 2,000' AGL
  • Broken at 3,300' AGL
Temperatures Readings
Current 8°C / 46°F
Dewpoint 3°C / 37°F
Humidity 71%
Altimeter 30.15" Hg
Pressure 1021 hPa
Elevation 5
METAR EGPB 131020Z 17024G37KT 9999 FEW020 BKN033 08/03 Q1021
Observed Flight Rules
Dec-13 @ 10:20 UTC
(31 minutes ago)
VFR
Wind Visibility
170° at 24 knots
 Gusting to 37 knots
10,000+ meters
Clouds
  • Few at 2,000' AGL
  • Broken at 3,300' AGL
Temperature Dewpoint
8°C / 46°F 3°C / 37°F
Humidity Altimeter Pressure
71% 30.15" Hg 1021 hPa